Langebaanweg, South Africa
Current Conditions -  °F | °C
As of 2:00 PM on Saturday 25 Oct 2014 (Local Time) from FACT Reporting Station
Few Clouds Few Clouds  
Wind Chill: 82°   Ceiling: Unl
Heat Index: 82°   Visibility: 6mi
Dew Point: 59°   Wind: 23mph
Humidity: 45%   Direction: 130°SE
Pressure: 30"   Gusts: NA
Location:  32.97°S, 18.15°E
Report Text: FACT 251200Z 13020KT 9999 FEW030 28/15 Q1016 NOSIG
Loading
Personal Weather Stations






























Interactive Weather Map
Tropical Storm Tracking
New forecast layout! Learn more

10-Day Weather Forecast

Advertisements
Track Severe Weather on mobile